Time;durP1;ratioP1;P1;durP2;ratioP2;P2;SDS_P1;SDS_P2;PMS_P1;PMS_P2;Temp;Humidity;BMP_temperature;BMP_pressure;BME280_temperature;BME280_humidity;BME280_pressure;Samples;Min_cycle;Max_cycle;Signal;HPM_P1;HPM_P2
2024/01/21 00:00:12;;;;;;;2.20;0.67;;;-3.60;99.90;;;;;;5076085;28;20832;-80
2024/01/21 00:02:39;;;;;;;0.87;0.87;;;-3.60;99.90;;;;;;5075825;28;20542;-80
2024/01/21 00:05:08;;;;;;;0.70;0.40;;;-3.70;99.90;;;;;;5075157;28;20441;-80
2024/01/21 00:07:34;;;;;;;1.60;0.63;;;-3.70;99.90;;;;;;5075053;28;20452;-80
2024/01/21 00:10:01;;;;;;;0.50;0.50;;;-3.70;99.90;;;;;;5074636;28;20460;-80
2024/01/21 00:12:28;;;;;;;2.97;0.80;;;-3.70;99.90;;;;;;5074843;28;20445;-79
2024/01/21 00:14:55;;;;;;;0.43;0.43;;;-3.70;99.90;;;;;;5075483;28;20491;-79
2024/01/21 00:17:21;;;;;;;0.57;0.50;;;-3.70;99.90;;;;;;5075268;28;20538;-79
2024/01/21 00:19:48;;;;;;;1.60;1.13;;;-3.70;99.90;;;;;;5074390;28;20782;-79
2024/01/21 00:22:16;;;;;;;0.87;0.67;;;-3.70;99.90;;;;;;5075173;28;20440;-79
2024/01/21 00:24:43;;;;;;;0.40;0.40;;;-3.70;99.90;;;;;;5074597;28;20462;-79
2024/01/21 00:27:10;;;;;;;1.03;0.70;;;-3.70;99.90;;;;;;5075001;28;20419;-79
2024/01/21 00:29:36;;;;;;;0.30;0.30;;;-3.70;99.90;;;;;;5075128;28;20464;-79
2024/01/21 00:32:03;;;;;;;0.90;0.67;;;-3.70;99.90;;;;;;5074873;28;20433;-80
2024/01/21 00:34:30;;;;;;;0.50;0.40;;;-3.70;99.90;;;;;;5077876;28;20436;-79
2024/01/21 00:36:57;;;;;;;2.23;1.13;;;-3.70;99.90;;;;;;5078850;28;20449;-80
2024/01/21 00:39:25;;;;;;;0.40;0.40;;;-3.70;99.90;;;;;;5078615;28;20464;-80
2024/01/21 00:41:52;;;;;;;1.37;1.27;;;-3.60;99.90;;;;;;5078839;28;20500;-79
2024/01/21 00:44:19;;;;;;;0.40;0.40;;;-3.60;99.90;;;;;;5079011;28;20864;-79
2024/01/21 00:46:47;;;;;;;0.60;0.40;;;-3.60;99.90;;;;;;5078540;28;20503;-80
2024/01/21 00:49:14;;;;;;;2.90;0.93;;;-3.60;99.90;;;;;;5079071;28;20461;-79
2024/01/21 00:51:40;;;;;;;0.30;0.30;;;-3.60;99.90;;;;;;5079222;28;20453;-79
2024/01/21 00:54:07;;;;;;;0.30;0.30;;;-3.70;99.90;;;;;;5078688;28;20433;-79
2024/01/21 00:56:35;;;;;;;0.97;0.60;;;-3.60;99.90;;;;;;5091099;28;20433;-79
2024/01/21 00:59:02;;;;;;;7.10;1.00;;;-3.60;99.90;;;;;;5091430;28;20430;-80
2024/01/21 01:01:30;;;;;;;0.30;0.30;;;-3.60;99.90;;;;;;5088410;28;20495;-80
2024/01/21 01:03:57;;;;;;;1.07;0.73;;;-3.60;99.90;;;;;;5081089;28;20487;-80
2024/01/21 01:06:23;;;;;;;1.47;1.07;;;-3.50;99.90;;;;;;5082774;28;20822;-80
2024/01/21 01:08:50;;;;;;;2.50;1.67;;;-3.50;99.90;;;;;;5078569;28;20472;-80
2024/01/21 01:11:20;;;;;;;0.70;0.63;;;-3.50;99.90;;;;;;5079876;28;20445;-79
2024/01/21 01:13:48;;;;;;;0.60;0.60;;;-3.40;99.90;;;;;;5079911;28;20433;-79
2024/01/21 01:16:15;;;;;;;1.13;1.03;;;-3.40;99.90;;;;;;5078496;28;20444;-80
2024/01/21 01:18:42;;;;;;;0.87;0.87;;;-3.40;99.90;;;;;;5078229;28;20659;-80
2024/01/21 01:21:10;;;;;;;0.80;0.80;;;-3.40;99.90;;;;;;5078326;28;20449;-80
2024/01/21 01:23:36;;;;;;;0.50;0.50;;;-3.40;99.90;;;;;;5078338;28;20478;-79
2024/01/21 01:26:03;;;;;;;1.10;1.10;;;-3.40;99.90;;;;;;5078082;28;20463;-80
2024/01/21 01:28:31;;;;;;;0.60;0.60;;;-3.40;99.90;;;;;;5077847;28;20430;-80
2024/01/21 01:30:59;;;;;;;0.30;0.30;;;-3.40;99.90;;;;;;5078571;28;20457;-80
2024/01/21 01:33:26;;;;;;;1.77;0.80;;;-3.40;99.90;;;;;;5077453;28;20445;-79
2024/01/21 01:35:53;;;;;;;1.40;1.30;;;-3.40;99.90;;;;;;5077043;28;20938;-80
2024/01/21 01:38:19;;;;;;;2.00;1.23;;;-3.30;99.90;;;;;;5077525;28;20441;-80
2024/01/21 01:40:46;;;;;;;1.83;0.50;;;-3.30;99.90;;;;;;5077365;28;20953;-79
2024/01/21 01:43:13;;;;;;;0.80;0.80;;;-3.40;99.90;;;;;;5077191;28;20460;-79
2024/01/21 01:45:40;;;;;;;0.57;0.57;;;-3.40;99.90;;;;;;5076184;28;20459;-80
2024/01/21 01:48:08;;;;;;;1.03;0.77;;;-3.40;99.90;;;;;;5077139;28;20426;-80
2024/01/21 01:50:35;;;;;;;1.50;1.40;;;-3.30;99.90;;;;;;5080178;28;20451;-79
2024/01/21 01:53:02;;;;;;;0.60;0.60;;;-3.30;99.90;;;;;;5080540;28;20427;-79
2024/01/21 01:55:29;;;;;;;0.40;0.40;;;-3.20;99.90;;;;;;5076672;28;20434;-79
2024/01/21 01:57:56;;;;;;;1.70;1.53;;;-3.20;99.90;;;;;;5077588;28;20426;-80
2024/01/21 02:00:23;;;;;;;1.03;0.73;;;-3.20;99.90;;;;;;5076608;28;20804;-80
2024/01/21 02:02:51;;;;;;;2.20;0.63;;;-3.20;99.90;;;;;;5076853;28;20514;-79
2024/01/21 02:05:20;;;;;;;0.60;0.53;;;-3.10;99.90;;;;;;5076687;28;20438;-79
2024/01/21 02:07:47;;;;;;;1.00;1.00;;;-3.10;99.90;;;;;;5076710;28;20477;-79
2024/01/21 02:10:14;;;;;;;0.53;0.53;;;-3.10;99.90;;;;;;5077138;28;20973;-79
2024/01/21 02:12:44;;;;;;;0.77;0.77;;;-3.10;99.90;;;;;;5076942;28;20437;-79
2024/01/21 02:15:11;;;;;;;1.17;0.70;;;-3.10;99.90;;;;;;5077022;28;20420;-79
2024/01/21 02:17:38;;;;;;;0.97;0.83;;;-3.00;99.90;;;;;;5077808;28;20456;-80
2024/01/21 02:20:07;;;;;;;1.70;0.50;;;-3.10;99.90;;;;;;5077387;28;20468;-80
2024/01/21 02:22:36;;;;;;;0.30;0.30;;;-3.00;99.90;;;;;;5077171;28;20441;-80
2024/01/21 02:25:05;;;;;;;0.60;0.60;;;-3.00;99.90;;;;;;5077179;28;20507;-79
2024/01/21 02:27:32;;;;;;;1.27;1.27;;;-3.00;99.90;;;;;;5077454;28;20948;-79
2024/01/21 02:29:59;;;;;;;0.60;0.60;;;-3.00;99.90;;;;;;5076723;28;20476;-79
2024/01/21 02:32:26;;;;;;;1.60;0.50;;;-3.00;99.90;;;;;;5076836;28;20545;-79
2024/01/21 02:34:53;;;;;;;0.40;0.40;;;-3.00;99.90;;;;;;5077297;28;20449;-79
2024/01/21 02:37:20;;;;;;;0.60;0.60;;;-3.00;99.90;;;;;;5076964;28;20452;-79
2024/01/21 02:39:46;;;;;;;1.43;0.53;;;-3.00;99.90;;;;;;5077190;28;20467;-79
2024/01/21 02:42:15;;;;;;;4.00;1.30;;;-3.00;99.90;;;;;;5077006;28;20411;-79
2024/01/21 02:44:41;;;;;;;0.30;0.30;;;-3.00;99.90;;;;;;5077754;28;20517;-79
2024/01/21 02:47:08;;;;;;;0.40;0.40;;;-3.00;99.90;;;;;;5078436;28;20460;-80
2024/01/21 02:49:35;;;;;;;1.17;0.83;;;-3.00;99.90;;;;;;5078322;28;20841;-80
2024/01/21 02:52:01;;;;;;;1.13;0.80;;;-3.00;99.90;;;;;;5077526;28;20440;-80
2024/01/21 02:54:28;;;;;;;1.90;0.87;;;-3.00;99.90;;;;;;5077498;28;20452;-79
2024/01/21 02:56:55;;;;;;;2.20;0.70;;;-3.00;99.90;;;;;;5076686;28;20449;-79
2024/01/21 02:59:23;;;;;;;0.50;0.50;;;-3.00;99.90;;;;;;5076722;28;20440;-80
2024/01/21 03:01:50;;;;;;;1.73;0.70;;;-3.10;99.90;;;;;;5076084;28;20445;-80
2024/01/21 03:04:15;;;;;;;0.60;0.60;;;-3.20;99.90;;;;;;5075978;28;20489;-79
2024/01/21 03:06:43;;;;;;;0.40;0.40;;;-3.20;99.90;;;;;;5076661;28;20953;-80
2024/01/21 03:09:10;;;;;;;1.70;0.83;;;-3.20;99.90;;;;;;5075654;28;20226;-80
2024/01/21 03:11:38;;;;;;;6.90;0.93;;;-3.20;99.90;;;;;;5076020;28;20419;-79
2024/01/21 03:14:06;;;;;;;0.80;0.80;;;-3.20;99.90;;;;;;5076116;28;20531;-79
2024/01/21 03:16:34;;;;;;;0.60;0.60;;;-3.20;99.90;;;;;;5076301;28;20445;-79
2024/01/21 03:19:01;;;;;;;0.63;0.63;;;-3.30;99.90;;;;;;5075708;28;20428;-80
2024/01/21 03:21:27;;;;;;;1.30;1.30;;;-3.30;99.90;;;;;;5075461;28;20455;-79
2024/01/21 03:23:54;;;;;;;0.67;0.60;;;-3.30;99.90;;;;;;5075674;28;20455;-79
2024/01/21 03:26:21;;;;;;;0.80;0.70;;;-3.30;99.90;;;;;;5075071;28;20803;-79
2024/01/21 03:28:48;;;;;;;3.17;0.50;;;-3.40;99.90;;;;;;5075633;28;20460;-79
2024/01/21 03:31:14;;;;;;;1.90;0.73;;;-3.40;99.90;;;;;;5075726;28;20930;-79
2024/01/21 03:33:43;;;;;;;1.23;0.50;;;-3.40;99.90;;;;;;5075573;28;20459;-79
2024/01/21 03:36:12;;;;;;;0.30;0.30;;;-3.40;99.90;;;;;;5077487;28;20427;-79
2024/01/21 03:38:39;;;;;;;2.10;0.70;;;-3.40;99.90;;;;;;5081166;28;20827;-80
2024/01/21 03:41:06;;;;;;;0.50;0.50;;;-3.40;99.90;;;;;;5082390;28;20471;-79
2024/01/21 03:43:33;;;;;;;0.50;0.50;;;-3.40;99.90;;;;;;5081576;28;20424;-79
2024/01/21 03:46:00;;;;;;;0.40;0.40;;;-3.40;99.90;;;;;;5088503;28;20430;-79
2024/01/21 03:48:26;;;;;;;0.90;0.77;;;-3.40;99.90;;;;;;5096497;28;20460;-80
2024/01/21 03:50:54;;;;;;;0.83;0.83;;;-3.40;99.90;;;;;;5096853;28;20463;-79
2024/01/21 03:53:21;;;;;;;1.10;1.00;;;-3.50;99.90;;;;;;5093734;28;20440;-79
2024/01/21 03:55:47;;;;;;;0.30;0.30;;;-3.50;99.90;;;;;;5089268;28;20441;-79
2024/01/21 03:58:14;;;;;;;2.20;1.17;;;-2.80;99.90;;;;;;5083717;28;20781;-80
2024/01/21 04:00:40;;;;;;;0.57;0.57;;;-3.50;99.90;;;;;;5078463;28;20210;-79
2024/01/21 04:03:07;;;;;;;0.40;0.40;;;-3.40;99.90;;;;;;5076939;28;20419;-79
2024/01/21 04:05:34;;;;;;;1.17;0.97;;;-3.40;99.90;;;;;;5077467;28;20484;-80
2024/01/21 04:08:05;;;;;;;0.30;0.30;;;-3.40;99.90;;;;;;5075790;28;20451;-79
2024/01/21 04:10:32;;;;;;;0.30;0.30;;;-3.30;99.90;;;;;;5076398;28;20433;-79
2024/01/21 04:12:59;;;;;;;1.13;1.13;;;-3.30;99.90;;;;;;5075911;28;20430;-79
2024/01/21 04:15:26;;;;;;;1.43;1.37;;;-3.30;99.90;;;;;;5075222;28;20452;-79
2024/01/21 04:17:52;;;;;;;1.47;1.37;;;-3.30;99.90;;;;;;5075792;28;20930;-79
2024/01/21 04:20:19;;;;;;;0.30;0.30;;;-3.30;99.90;;;;;;5075744;28;20435;-79
2024/01/21 04:22:46;;;;;;;0.77;0.77;;;-3.20;99.90;;;;;;5076832;28;20462;-79
2024/01/21 04:25:14;;;;;;;0.30;0.30;;;-3.20;99.90;;;;;;5078893;28;20459;-79
2024/01/21 04:27:41;;;;;;;0.73;0.73;;;-3.30;99.90;;;;;;5074517;28;20897;-79
2024/01/21 04:30:09;;;;;;;1.70;0.73;;;-3.20;99.90;;;;;;5074740;28;20472;-79
2024/01/21 04:32:36;;;;;;;0.70;0.40;;;-3.30;99.90;;;;;;5074603;28;20445;-79
2024/01/21 04:35:02;;;;;;;3.07;1.23;;;-3.30;99.90;;;;;;5074475;28;20837;-79
2024/01/21 04:37:29;;;;;;;0.30;0.30;;;-3.30;99.90;;;;;;5074184;28;20449;-79
2024/01/21 04:39:56;;;;;;;0.30;0.30;;;-3.20;99.90;;;;;;5074527;28;20476;-79
2024/01/21 04:42:25;;;;;;;4.00;1.37;;;-3.20;99.90;;;;;;5074815;28;20441;-79
2024/01/21 04:44:52;;;;;;;0.57;0.57;;;-3.20;99.90;;;;;;5074658;28;20890;-80
2024/01/21 04:47:19;;;;;;;0.47;0.30;;;-3.20;99.90;;;;;;5074792;28;20444;-79
2024/01/21 04:49:46;;;;;;;1.20;0.77;;;-3.10;99.90;;;;;;5074262;28;20477;-79
2024/01/21 04:52:13;;;;;;;0.57;0.43;;;-3.20;99.90;;;;;;5074418;28;20431;-79
2024/01/21 04:54:40;;;;;;;0.60;0.60;;;-3.20;99.90;;;;;;5074054;28;20449;-79
2024/01/21 04:57:06;;;;;;;0.40;0.40;;;-3.20;99.90;;;;;;5074570;28;20448;-79
2024/01/21 04:59:34;;;;;;;0.43;0.43;;;-3.30;99.90;;;;;;5074148;28;20440;-79
2024/01/21 05:02:01;;;;;;;0.30;0.30;;;-3.30;99.90;;;;;;5073991;28;20440;-79
2024/01/21 05:04:28;;;;;;;0.50;0.50;;;-3.30;99.90;;;;;;5073676;28;20480;-79
2024/01/21 05:06:54;;;;;;;0.40;0.40;;;-3.20;99.90;;;;;;5074532;28;20441;-79
2024/01/21 05:09:21;;;;;;;0.30;0.30;;;-3.20;99.90;;;;;;5074585;28;20485;-79
2024/01/21 05:11:48;;;;;;;0.97;0.50;;;-3.20;99.90;;;;;;5074685;28;20418;-79
2024/01/21 05:14:15;;;;;;;0.30;0.30;;;-3.20;99.90;;;;;;5074779;28;20514;-79
2024/01/21 05:16:43;;;;;;;0.50;0.50;;;-3.20;99.90;;;;;;5077677;28;20427;-79
2024/01/21 05:19:10;;;;;;;0.30;0.20;;;-2.80;99.90;;;;;;5080480;28;21024;-79
2024/01/21 05:21:37;;;;;;;0.30;0.27;;;-3.20;99.90;;;;;;5083733;28;20547;-80
2024/01/21 05:24:04;;;;;;;1.40;0.97;;;-3.10;99.90;;;;;;5077586;28;20408;-79
2024/01/21 05:26:31;;;;;;;0.50;0.50;;;-3.10;99.90;;;;;;5077867;28;20449;-81
2024/01/21 05:28:59;;;;;;;0.30;0.30;;;-3.10;99.90;;;;;;5078704;28;20449;-79
2024/01/21 05:31:28;;;;;;;0.30;0.20;;;-3.20;99.90;;;;;;5077977;28;20477;-79
2024/01/21 05:33:56;;;;;;;0.77;0.77;;;-3.20;99.90;;;;;;5077883;28;20471;-79
2024/01/21 05:36:23;;;;;;;0.40;0.40;;;-3.20;99.90;;;;;;5077717;28;20415;-79
2024/01/21 05:38:49;;;;;;;0.30;0.30;;;-3.20;99.90;;;;;;5077722;28;20435;-79
2024/01/21 05:41:16;;;;;;;3.43;1.33;;;-3.10;99.90;;;;;;5077524;28;20968;-79
2024/01/21 05:43:43;;;;;;;0.80;0.43;;;-3.10;99.90;;;;;;5077874;28;20452;-79
2024/01/21 05:46:10;;;;;;;0.40;0.30;;;-3.20;99.90;;;;;;5077477;28;20462;-79
2024/01/21 05:48:37;;;;;;;0.47;0.40;;;-3.20;99.90;;;;;;5077538;28;20439;-79
2024/01/21 05:51:05;;;;;;;0.87;0.83;;;-3.30;99.90;;;;;;5077415;28;20448;-79
2024/01/21 05:53:32;;;;;;;0.30;0.30;;;-3.30;99.90;;;;;;5077415;28;20436;-79
2024/01/21 05:55:59;;;;;;;0.40;0.40;;;-3.30;99.90;;;;;;5077608;28;20454;-79
2024/01/21 05:58:26;;;;;;;0.30;0.30;;;-3.30;99.90;;;;;;5077600;28;20468;-79
2024/01/21 06:00:53;;;;;;;0.70;0.70;;;-3.30;99.90;;;;;;5077851;28;20448;-79
2024/01/21 06:03:19;;;;;;;2.53;0.60;;;-3.40;99.90;;;;;;5078050;28;20453;-79
2024/01/21 06:05:46;;;;;;;0.40;0.40;;;-3.40;99.90;;;;;;5077158;28;20979;-79
2024/01/21 06:08:14;;;;;;;5.90;1.90;;;-3.40;99.90;;;;;;5076760;28;20483;-79
2024/01/21 06:10:41;;;;;;;2.30;0.93;;;-3.40;99.90;;;;;;5076974;28;20460;-79
2024/01/21 06:13:07;;;;;;;0.93;0.80;;;-3.40;99.90;;;;;;5076579;28;20441;-79
2024/01/21 06:15:35;;;;;;;0.50;0.50;;;-3.50;99.90;;;;;;5076328;28;20444;-79
2024/01/21 06:18:01;;;;;;;0.73;0.70;;;-3.50;99.90;;;;;;5076210;28;20788;-79
2024/01/21 06:20:29;;;;;;;0.40;0.40;;;-3.50;99.90;;;;;;5076357;28;20491;-79
2024/01/21 06:22:55;;;;;;;0.30;0.30;;;-3.40;99.90;;;;;;5076099;28;20418;-79
2024/01/21 06:25:23;;;;;;;5.63;0.87;;;-3.40;99.90;;;;;;5076595;28;20459;-79
2024/01/21 06:27:50;;;;;;;0.57;0.57;;;-3.40;99.90;;;;;;5076304;28;20441;-79
2024/01/21 06:30:19;;;;;;;0.30;0.30;;;-3.40;99.90;;;;;;5076230;28;20440;-79
2024/01/21 06:32:46;;;;;;;0.73;0.73;;;-3.40;99.90;;;;;;5075893;28;20449;-79
2024/01/21 06:35:12;;;;;;;0.50;0.47;;;-3.50;99.90;;;;;;5076105;28;20946;-79
2024/01/21 06:37:39;;;;;;;0.40;0.40;;;-3.50;99.90;;;;;;5076360;28;20448;-79
2024/01/21 06:40:07;;;;;;;0.93;0.50;;;-3.50;99.90;;;;;;5075682;28;20500;-79
2024/01/21 06:42:37;;;;;;;0.97;0.63;;;-3.40;99.90;;;;;;5075776;28;20445;-79
2024/01/21 06:45:04;;;;;;;0.50;0.50;;;-3.50;99.90;;;;;;5075755;28;20455;-79
2024/01/21 06:47:31;;;;;;;0.40;0.40;;;-3.50;99.90;;;;;;5075536;28;20437;-79
2024/01/21 06:49:58;;;;;;;0.53;0.50;;;-3.50;99.90;;;;;;5075486;28;20940;-79
2024/01/21 06:52:25;;;;;;;0.40;0.30;;;-3.50;99.90;;;;;;5075544;28;20445;-79
2024/01/21 06:54:51;;;;;;;0.40;0.40;;;-3.40;99.90;;;;;;5075579;28;20419;-79
2024/01/21 06:57:18;;;;;;;0.60;0.60;;;-3.40;99.90;;;;;;5076397;28;20446;-79
2024/01/21 06:59:47;;;;;;;0.60;0.60;;;-3.30;99.90;;;;;;5076181;28;20444;-79
2024/01/21 07:02:14;;;;;;;0.43;0.43;;;-3.30;99.90;;;;;;5080503;28;20954;-79
2024/01/21 07:04:40;;;;;;;0.40;0.40;;;-3.20;99.90;;;;;;5075267;28;20423;-79
2024/01/21 07:07:08;;;;;;;0.60;0.60;;;-3.20;99.90;;;;;;5075012;28;20449;-79
2024/01/21 07:09:35;;;;;;;0.50;0.50;;;-3.10;99.90;;;;;;5074926;28;20472;-79
2024/01/21 07:12:02;;;;;;;0.97;0.80;;;-3.00;99.90;;;;;;5074842;28;20433;-79
2024/01/21 07:14:33;;;;;;;0.70;0.70;;;-3.00;99.90;;;;;;5074792;28;20789;-79
2024/01/21 07:17:01;;;;;;;2.00;0.90;;;-2.90;99.90;;;;;;5075061;28;20403;-79
2024/01/21 07:19:28;;;;;;;0.77;0.77;;;-2.90;99.90;;;;;;5074755;28;20493;-79
2024/01/21 07:21:55;;;;;;;0.70;0.67;;;-2.80;99.90;;;;;;5075299;28;20445;-79
2024/01/21 07:24:21;;;;;;;0.60;0.60;;;-2.80;99.90;;;;;;5075372;28;20420;-79
2024/01/21 07:26:48;;;;;;;1.93;0.77;;;-2.70;99.90;;;;;;5074896;28;20477;-79
2024/01/21 07:29:15;;;;;;;0.30;0.30;;;-2.70;99.90;;;;;;5074359;28;20465;-79
2024/01/21 07:31:42;;;;;;;1.33;1.23;;;-2.60;99.90;;;;;;5074096;28;20797;-79
2024/01/21 07:34:10;;;;;;;0.30;0.30;;;-2.60;99.90;;;;;;5074408;28;20440;-79
2024/01/21 07:36:37;;;;;;;0.60;0.60;;;-2.60;99.90;;;;;;5077420;28;20447;-79
2024/01/21 07:39:05;;;;;;;1.03;0.93;;;-2.50;99.90;;;;;;5076918;28;20460;-79
2024/01/21 07:41:32;;;;;;;4.20;1.13;;;-2.50;99.90;;;;;;5077629;28;20445;-81
2024/01/21 07:43:59;;;;;;;1.07;1.03;;;-2.30;99.90;;;;;;5076134;28;20452;-79
2024/01/21 07:46:26;;;;;;;0.37;0.37;;;-2.30;99.90;;;;;;5076951;28;20500;-78
2024/01/21 07:48:53;;;;;;;0.40;0.40;;;-2.30;99.90;;;;;;5076617;28;20461;-78
2024/01/21 07:51:21;;;;;;;3.70;1.53;;;-2.20;99.90;;;;;;5076055;28;20437;-78
2024/01/21 07:53:48;;;;;;;1.50;1.40;;;-2.10;99.90;;;;;;5076262;28;20428;-79
2024/01/21 07:56:14;;;;;;;1.20;0.70;;;-2.10;99.90;;;;;;5076600;28;20822;-81
2024/01/21 07:58:41;;;;;;;2.20;1.00;;;-2.00;99.90;;;;;;5076644;28;20440;-81
2024/01/21 08:01:11;;;;;;;0.40;0.40;;;-2.00;99.90;;;;;;5076184;28;20440;-78
2024/01/21 08:03:38;;;;;;;0.43;0.43;;;-1.80;99.90;;;;;;5076623;28;20452;-81
2024/01/21 08:06:07;;;;;;;0.60;0.60;;;-1.80;99.90;;;;;;5076088;28;20511;-79
2024/01/21 08:08:35;;;;;;;1.37;0.83;;;-1.80;99.90;;;;;;5075969;28;20559;-79
2024/01/21 08:11:02;;;;;;;1.80;0.63;;;-1.70;99.90;;;;;;5074935;28;20445;-79
2024/01/21 08:13:29;;;;;;;1.40;0.80;;;-1.60;99.90;;;;;;5075619;28;20445;-79
2024/01/21 08:15:55;;;;;;;1.63;1.37;;;-1.50;99.90;;;;;;5075088;28;20441;-79
2024/01/21 08:18:22;;;;;;;1.17;0.60;;;-1.40;99.90;;;;;;5074941;28;20916;-79
2024/01/21 08:20:49;;;;;;;0.80;0.77;;;-1.30;99.90;;;;;;5074938;28;20452;-79
2024/01/21 08:23:16;;;;;;;1.77;0.97;;;-1.20;99.90;;;;;;5075043;28;20437;-79
2024/01/21 08:25:44;;;;;;;0.60;0.50;;;-1.10;99.90;;;;;;5074985;28;20472;-79
2024/01/21 08:28:11;;;;;;;0.83;0.83;;;-1.00;99.90;;;;;;5075418;28;20452;-79
2024/01/21 08:30:38;;;;;;;0.60;0.60;;;-0.90;99.90;;;;;;5088260;28;20460;-78
2024/01/21 08:33:05;;;;;;;0.77;0.77;;;-0.90;99.90;;;;;;5086136;28;20451;-79
2024/01/21 08:35:32;;;;;;;2.13;0.97;;;-0.80;99.90;;;;;;5077873;28;20445;-79
2024/01/21 08:38:00;;;;;;;0.40;0.40;;;-0.80;99.90;;;;;;5073840;28;20933;-79
2024/01/21 08:40:26;;;;;;;0.50;0.50;;;-0.70;99.90;;;;;;5074128;28;20564;-79
2024/01/21 08:42:54;;;;;;;1.83;0.80;;;-0.80;99.90;;;;;;5074333;28;20467;-79
2024/01/21 08:45:21;;;;;;;0.90;0.90;;;-0.80;99.90;;;;;;5074680;28;20473;-79
2024/01/21 08:47:48;;;;;;;0.93;0.67;;;-0.70;99.90;;;;;;5074269;28;20445;-79
2024/01/21 08:50:14;;;;;;;0.30;0.30;;;-0.60;99.90;;;;;;5074085;28;20469;-79
2024/01/21 08:52:41;;;;;;;0.70;0.70;;;-0.60;99.90;;;;;;5074244;28;20440;-79
2024/01/21 08:55:08;;;;;;;0.50;0.50;;;-0.50;99.90;;;;;;5076149;28;20984;-79
2024/01/21 08:57:35;;;;;;;1.43;0.67;;;-0.40;99.90;;;;;;5078154;28;20823;-79
2024/01/21 09:00:05;;;;;;;0.93;0.60;;;-0.40;99.90;;;;;;5077875;28;20831;-79
2024/01/21 09:02:31;;;;;;;0.90;0.90;;;-0.30;99.90;;;;;;5077746;28;20479;-82
2024/01/21 09:04:58;;;;;;;3.60;1.40;;;-0.30;99.90;;;;;;5078524;28;20444;-79
2024/01/21 09:07:25;;;;;;;1.53;1.43;;;-0.20;99.90;;;;;;5080027;28;20484;-79
2024/01/21 09:09:52;;;;;;;0.90;0.87;;;-0.20;99.90;;;;;;5078941;28;20457;-80
2024/01/21 09:12:19;;;;;;;0.60;0.50;;;-0.20;99.90;;;;;;5079074;28;20453;-80
2024/01/21 09:14:45;;;;;;;0.50;0.50;;;-0.30;99.90;;;;;;5078868;28;20444;-81
2024/01/21 09:17:13;;;;;;;2.07;1.37;;;-0.20;99.90;;;;;;5078444;28;20789;-80
2024/01/21 09:19:40;;;;;;;0.73;0.63;;;-0.10;99.90;;;;;;5078525;28;20477;-80
2024/01/21 09:22:07;;;;;;;0.43;0.43;;;-0.10;99.90;;;;;;5078146;28;20455;-80
2024/01/21 09:24:33;;;;;;;2.10;1.53;;;0.00;99.90;;;;;;5080061;28;20452;-80
2024/01/21 09:27:00;;;;;;;1.63;1.53;;;0.10;99.90;;;;;;5079340;28;20989;-81
2024/01/21 09:29:27;;;;;;;8.10;1.90;;;0.00;99.90;;;;;;5096496;28;20532;-80
2024/01/21 09:31:55;;;;;;;3.10;1.00;;;0.10;99.90;;;;;;5076421;28;20445;-79
2024/01/21 09:34:23;;;;;;;2.30;1.60;;;0.20;99.90;;;;;;5076876;28;20521;-79
2024/01/21 09:36:51;;;;;;;0.83;0.73;;;0.20;99.90;;;;;;5076573;28;20449;-79
2024/01/21 09:39:18;;;;;;;0.70;0.70;;;0.10;99.90;;;;;;5078209;28;20476;-78
2024/01/21 09:41:49;;;;;;;16.87;2.03;;;0.20;99.90;;;;;;5078580;28;20451;-78
2024/01/21 09:44:18;;;;;;;2.57;1.17;;;0.30;99.90;;;;;;5078496;28;21003;-81
2024/01/21 09:46:50;;;;;;;3.70;0.70;;;0.40;99.90;;;;;;5078543;28;21023;-81
2024/01/21 09:49:18;;;;;;;1.43;0.90;;;0.50;99.90;;;;;;5078320;28;20799;-80
2024/01/21 09:51:47;;;;;;;2.43;1.60;;;0.70;99.90;;;;;;5078453;28;20422;-80
2024/01/21 09:54:14;;;;;;;0.70;0.70;;;0.90;99.90;;;;;;5077770;28;20452;-78
2024/01/21 09:56:42;;;;;;;0.93;0.40;;;1.10;99.90;;;;;;5078129;28;20445;-78
2024/01/21 09:59:10;;;;;;;0.67;0.53;;;1.30;99.90;;;;;;5078230;28;20475;-79
2024/01/21 10:01:38;;;;;;;1.13;1.10;;;1.40;99.90;;;;;;5078669;28;20441;-79
2024/01/21 10:04:05;;;;;;;2.10;1.40;;;1.60;99.90;;;;;;5077908;28;20449;-79
2024/01/21 10:06:33;;;;;;;1.10;1.10;;;1.90;99.90;;;;;;5076813;28;20479;-79
2024/01/21 10:09:13;;;;;;;3.13;1.30;;;2.20;99.90;;;;;;5077215;28;20484;-79
2024/01/21 10:11:40;;;;;;;1.30;1.23;;;2.70;99.90;;;;;;5077717;28;20436;-79
2024/01/21 10:14:06;;;;;;;2.00;1.57;;;3.10;99.90;;;;;;5077617;28;20450;-79
2024/01/21 10:16:33;;;;;;;1.73;1.17;;;3.40;99.90;;;;;;5077698;28;20441;-79
2024/01/21 10:19:00;;;;;;;0.70;0.67;;;3.50;99.90;;;;;;5077842;28;20468;-79
2024/01/21 10:21:27;;;;;;;2.30;1.80;;;3.50;99.90;;;;;;5077138;28;20921;-79
2024/01/21 10:23:54;;;;;;;3.10;2.30;;;3.30;99.90;;;;;;5077180;28;20449;-79
2024/01/21 10:26:22;;;;;;;1.00;0.90;;;3.20;99.90;;;;;;5077079;28;20997;-79
2024/01/21 10:28:49;;;;;;;4.77;1.43;;;3.10;99.90;;;;;;5076748;28;20476;-79
2024/01/21 10:31:15;;;;;;;3.23;1.10;;;3.10;99.90;;;;;;5077785;28;20448;-79
2024/01/21 10:33:45;;;;;;;4.10;1.93;;;3.10;99.90;;;;;;5077329;28;20506;-79
2024/01/21 10:36:12;;;;;;;1.90;0.70;;;3.00;99.90;;;;;;5077304;28;20495;-79
2024/01/21 10:38:49;;;;;;;3.50;1.90;;;2.80;99.90;;;;;;5077371;28;20473;-79
2024/01/21 10:41:26;;;;;;;3.53;2.30;;;2.80;99.90;;;;;;5077478;28;20474;-79
2024/01/21 10:43:55;;;;;;;1.73;1.07;;;2.70;99.90;;;;;;5077324;28;20432;-79
2024/01/21 10:46:25;;;;;;;6.67;1.63;;;2.60;99.90;;;;;;5077036;28;20473;-79
2024/01/21 10:48:55;;;;;;;1.17;1.07;;;2.60;99.90;;;;;;5076419;28;20449;-79
2024/01/21 10:51:22;;;;;;;0.87;0.83;;;2.60;99.90;;;;;;5076788;28;20452;-80
2024/01/21 10:53:51;;;;;;;1.13;0.90;;;2.60;99.90;;;;;;5077249;28;20467;-79
2024/01/21 10:56:18;;;;;;;2.10;0.90;;;2.70;99.90;;;;;;5076566;28;20441;-79
2024/01/21 10:58:47;;;;;;;3.80;1.63;;;2.80;99.90;;;;;;5077105;28;20476;-79
2024/01/21 11:01:15;;;;;;;1.37;0.50;;;2.90;99.90;;;;;;5077251;28;20445;-80
2024/01/21 11:03:43;;;;;;;1.23;0.97;;;3.00;99.90;;;;;;5078108;28;20448;-79
2024/01/21 11:06:12;;;;;;;0.73;0.73;;;3.10;99.90;;;;;;5077818;28;20480;-80
2024/01/21 11:08:43;;;;;;;0.70;0.70;;;3.30;99.90;;;;;;5077312;28;20476;-80
2024/01/21 11:11:20;;;;;;;2.20;1.00;;;3.20;99.90;;;;;;5077404;28;20928;-79
2024/01/21 11:13:49;;;;;;;0.90;0.90;;;3.40;99.90;;;;;;5076299;28;20439;-79
2024/01/21 11:16:37;;;;;;;1.00;0.83;;;3.40;99.90;;;;;;5076074;28;20440;-79
2024/01/21 11:19:06;;;;;;;2.67;1.40;;;3.60;99.90;;;;;;5080314;28;20477;-79
2024/01/21 11:21:33;;;;;;;0.50;0.50;;;3.70;99.90;;;;;;5079637;28;20445;-79
2024/01/21 11:24:02;;;;;;;2.73;1.73;;;3.70;99.90;;;;;;5075990;28;20452;-79
2024/01/21 11:26:29;;;;;;;0.80;0.77;;;3.70;99.90;;;;;;5075475;28;20485;-79
2024/01/21 11:28:59;;;;;;;1.27;0.87;;;3.70;99.90;;;;;;5075504;28;20831;-79
2024/01/21 11:31:28;;;;;;;2.30;1.00;;;3.60;99.90;;;;;;5075623;28;20459;-79
2024/01/21 11:34:05;;;;;;;1.90;1.50;;;3.50;99.90;;;;;;5075649;28;20822;-79
2024/01/21 11:36:33;;;;;;;3.00;0.80;;;3.60;99.90;;;;;;5075425;28;20429;-79
2024/01/21 11:39:00;;;;;;;2.40;1.93;;;3.50;99.90;;;;;;5076780;28;20472;-80
2024/01/21 11:41:37;;;;;;;1.63;1.47;;;3.40;99.90;;;;;;5076028;28;20452;-80
2024/01/21 11:44:13;;;;;;;1.93;1.40;;;3.40;99.90;;;;;;5076472;28;20425;-80
2024/01/21 11:46:41;;;;;;;2.17;1.80;;;3.40;99.90;;;;;;5084311;28;20492;-79
2024/01/21 11:49:08;;;;;;;2.83;2.10;;;3.30;99.90;;;;;;5091684;28;20471;-79
2024/01/21 11:51:35;;;;;;;1.93;1.20;;;3.30;99.90;;;;;;5094010;28;20496;-79
2024/01/21 11:54:02;;;;;;;1.83;1.60;;;3.30;99.90;;;;;;5080096;28;20456;-79
2024/01/21 11:56:29;;;;;;;1.90;1.67;;;3.30;99.90;;;;;;5075814;28;20429;-79
2024/01/21 11:58:57;;;;;;;5.90;3.23;;;3.30;99.90;;;;;;5074248;28;20469;-79
2024/01/21 12:01:26;;;;;;;3.40;1.90;;;3.20;99.90;;;;;;5074315;28;20451;-79
2024/01/21 12:03:53;;;;;;;5.80;3.10;;;3.10;99.90;;;;;;5074040;28;20445;-79
2024/01/21 12:06:20;;;;;;;2.40;2.30;;;3.00;99.90;;;;;;5074464;28;20455;-79
2024/01/21 12:08:47;;;;;;;3.17;1.60;;;3.00;99.90;;;;;;5074149;28;20499;-79
2024/01/21 12:11:15;;;;;;;3.53;1.03;;;3.00;99.90;;;;;;5075113;28;20452;-80
2024/01/21 12:13:43;;;;;;;4.20;2.33;;;3.00;99.90;;;;;;5074500;28;20507;-80
2024/01/21 12:16:10;;;;;;;0.87;0.77;;;3.10;99.90;;;;;;5074430;28;20869;-79
2024/01/21 12:18:42;;;;;;;1.47;1.33;;;3.00;99.90;;;;;;5074632;28;20460;-79
2024/01/21 12:21:12;;;;;;;1.93;1.53;;;2.90;99.90;;;;;;5074352;28;20445;-79
2024/01/21 12:23:40;;;;;;;2.13;0.90;;;2.80;99.90;;;;;;5075035;28;20479;-79
2024/01/21 12:26:07;;;;;;;0.97;0.70;;;2.70;99.90;;;;;;5073923;28;20528;-79
2024/01/21 12:28:34;;;;;;;1.37;0.87;;;2.60;99.90;;;;;;5075215;28;20461;-79
2024/01/21 12:31:01;;;;;;;2.17;1.10;;;2.60;99.90;;;;;;5082461;28;20436;-80
2024/01/21 12:33:28;;;;;;;2.63;2.40;;;2.60;99.90;;;;;;5082036;28;20433;-79
2024/01/21 12:35:56;;;;;;;1.70;1.30;;;2.60;99.90;;;;;;5081288;28;20444;-79
2024/01/21 12:38:23;;;;;;;1.93;1.10;;;2.60;99.90;;;;;;5081896;28;20443;-79
2024/01/21 12:40:50;;;;;;;1.37;0.70;;;2.70;99.90;;;;;;5081832;28;20440;-79
2024/01/21 12:43:17;;;;;;;2.33;1.53;;;2.70;99.90;;;;;;5081901;28;20444;-79
2024/01/21 12:45:44;;;;;;;1.23;1.17;;;2.70;99.90;;;;;;5081842;28;20501;-79
2024/01/21 12:48:11;;;;;;;2.07;1.63;;;2.80;99.90;;;;;;5081633;28;21017;-79
2024/01/21 12:50:41;;;;;;;0.80;0.80;;;2.70;99.90;;;;;;5081262;28;20447;-79